createdAt,value
2019-05-14T00:00:27.795Z,1.40
2019-05-14T00:01:27.965Z,2.10
2019-05-14T00:03:21.854Z,1.60
2019-05-14T00:04:21.919Z,1.80
2019-05-14T00:06:11.940Z,1.40
2019-05-14T00:07:11.950Z,1.60
2019-05-14T00:09:04.106Z,1.90
2019-05-14T00:10:04.039Z,1.40
2019-05-14T00:11:56.134Z,1.90
2019-05-14T00:12:56.307Z,1.60
2019-05-14T00:14:48.146Z,1.60
2019-05-14T00:15:48.348Z,1.40
2019-05-14T00:17:41.614Z,1.70
2019-05-14T00:18:41.978Z,2.00
2019-05-14T00:20:32.211Z,2.00
2019-05-14T00:21:32.175Z,1.90
2019-05-14T00:23:24.302Z,1.80
2019-05-14T00:24:24.216Z,1.80
2019-05-14T00:26:16.295Z,1.60
2019-05-14T00:27:16.244Z,1.40
2019-05-14T00:29:08.339Z,1.80
2019-05-14T00:30:08.512Z,1.60
2019-05-14T00:32:01.882Z,1.50
2019-05-14T00:33:01.179Z,1.50
2019-05-14T00:34:52.427Z,1.60
2019-05-14T00:35:52.344Z,2.50
2019-05-14T00:37:44.462Z,1.60
2019-05-14T00:38:44.380Z,1.80
2019-05-14T00:40:36.451Z,1.70
2019-05-14T00:41:36.416Z,1.60
2019-05-14T00:43:28.499Z,1.60
2019-05-14T00:44:28.683Z,1.50
2019-05-14T00:46:21.174Z,1.30
2019-05-14T00:47:21.737Z,1.70
2019-05-14T00:49:12.580Z,1.70
2019-05-14T00:50:12.752Z,1.50
2019-05-14T00:52:04.624Z,1.70
2019-05-14T00:53:04.586Z,1.50
2019-05-14T00:54:56.731Z,1.70
2019-05-14T00:55:56.690Z,1.60
2019-05-14T00:57:48.804Z,1.90
2019-05-14T00:58:48.728Z,1.40
2019-05-14T01:00:41.856Z,1.40
2019-05-14T01:01:42.573Z,2.50
2019-05-14T01:03:32.835Z,2.20
2019-05-14T01:04:33.028Z,1.40
2019-05-14T01:06:24.890Z,1.70
2019-05-14T01:07:25.067Z,1.50
2019-05-14T01:09:16.899Z,1.70
2019-05-14T01:10:17.095Z,1.90
2019-05-14T01:12:08.956Z,1.40
2019-05-14T01:13:11.111Z,1.60
2019-05-14T01:15:07.834Z,1.40
2019-05-14T01:16:01.598Z,1.60
2019-05-14T01:17:53.026Z,1.80
2019-05-14T01:18:53.197Z,1.30
2019-05-14T01:20:45.040Z,1.30
2019-05-14T01:21:45.234Z,1.90
2019-05-14T01:23:37.094Z,1.50
2019-05-14T01:24:37.039Z,2.10
2019-05-14T01:26:30.989Z,1.50
2019-05-14T01:27:29.071Z,1.40
2019-05-14T01:29:21.980Z,1.40
2019-05-14T01:30:21.499Z,1.40
2019-05-14T01:32:13.171Z,1.90
2019-05-14T01:33:13.368Z,1.80
2019-05-14T01:35:05.236Z,1.40
2019-05-14T01:36:05.169Z,1.40
2019-05-14T01:37:57.269Z,1.80
2019-05-14T01:38:57.438Z,1.70
2019-05-14T01:40:49.274Z,1.90
2019-05-14T01:41:51.494Z,1.80
2019-05-14T01:43:41.989Z,1.60
2019-05-14T01:44:41.658Z,1.50
2019-05-14T01:46:33.356Z,1.50
2019-05-14T01:47:33.541Z,1.40
2019-05-14T01:49:25.405Z,1.40
2019-05-14T01:50:25.340Z,1.30
2019-05-14T01:52:17.438Z,1.50
2019-05-14T01:53:17.609Z,1.50
2019-05-14T01:55:11.220Z,2.00
2019-05-14T01:56:11.819Z,1.70
2019-05-14T01:58:02.339Z,1.20
2019-05-14T01:59:01.644Z,1.60
2019-05-14T02:00:53.431Z,1.40
2019-05-14T02:01:53.379Z,1.30
2019-05-14T02:03:45.460Z,1.70
2019-05-14T02:04:45.418Z,1.60
2019-05-14T02:06:37.481Z,1.30
2019-05-14T02:07:37.444Z,1.50
2019-05-14T02:09:31.088Z,1.40
2019-05-14T02:10:31.346Z,1.30
2019-05-14T02:12:22.334Z,1.50
2019-05-14T02:13:21.754Z,1.30
2019-05-14T02:15:13.610Z,1.30
2019-05-14T02:16:13.785Z,1.50
2019-05-14T02:18:05.617Z,1.40
2019-05-14T02:19:05.581Z,1.40
2019-05-14T02:20:57.678Z,1.20
2019-05-14T02:21:57.614Z,1.30
2019-05-14T02:23:51.427Z,1.30
2019-05-14T02:24:51.777Z,1.30
2019-05-14T02:26:42.475Z,1.30
2019-05-14T02:27:41.921Z,1.60
2019-05-14T02:29:33.755Z,1.80
2019-05-14T02:55:59.213Z,1.40
2019-05-14T02:56:59.717Z,1.30
2019-05-14T02:58:49.979Z,1.30
2019-05-14T02:59:50.148Z,2.10
2019-05-14T03:01:41.330Z,1.40
2019-05-14T03:02:41.229Z,1.30
2019-05-14T03:04:33.394Z,1.60
2019-05-14T03:05:33.357Z,1.30
2019-05-14T03:07:25.456Z,1.30
2019-05-14T03:08:25.629Z,1.30
2019-05-14T03:10:19.500Z,1.60
2019-05-14T03:11:20.116Z,2.00
2019-05-14T03:13:09.823Z,1.50
2019-05-14T03:14:09.570Z,1.70
2019-05-14T03:16:21.083Z,1.30
2019-05-14T03:17:01.702Z,1.60
2019-05-14T03:18:53.795Z,1.30
2019-05-14T03:19:53.732Z,1.50
2019-05-14T03:21:45.804Z,1.30
2019-05-14T03:22:58.723Z,1.20
2019-05-14T03:24:39.637Z,1.20
2019-05-14T03:25:40.012Z,1.50
2019-05-14T03:27:30.676Z,1.70
2019-05-14T03:28:30.622Z,1.30
2019-05-14T03:30:23.144Z,1.30
2019-05-14T03:31:22.853Z,1.50
2019-05-14T03:33:14.164Z,1.60
2019-05-14T03:34:14.541Z,1.50
2019-05-14T03:36:15.094Z,1.40
2019-05-14T03:37:12.048Z,1.40
2019-05-14T03:38:59.348Z,1.60
2019-05-14T03:39:59.458Z,1.70
2019-05-14T03:41:50.261Z,1.20
2019-05-14T03:42:50.010Z,1.80
2019-05-14T03:44:42.187Z,1.50
2019-05-14T03:45:42.147Z,1.40
2019-05-14T03:47:34.227Z,1.50
2019-05-14T03:48:34.187Z,1.20
2019-05-14T03:50:29.466Z,1.40
2019-05-14T03:51:29.565Z,1.30
2019-05-14T03:53:18.958Z,1.50
2019-05-14T03:54:19.523Z,1.70
2019-05-14T03:56:10.560Z,1.50
2019-05-14T03:57:10.490Z,1.50
2019-05-14T03:59:02.652Z,1.40
2019-05-14T04:00:02.523Z,1.30
2019-05-14T04:01:54.429Z,1.20
2019-05-14T04:02:54.395Z,1.60
2019-05-14T04:04:49.823Z,1.80
2019-05-14T04:05:49.337Z,1.90
2019-05-14T04:07:39.333Z,1.20
2019-05-14T04:08:39.161Z,1.20
2019-05-14T04:10:30.517Z,1.20
2019-05-14T04:11:30.456Z,1.50
2019-05-14T04:13:22.530Z,1.40
2019-05-14T04:14:22.492Z,1.20
2019-05-14T04:16:14.386Z,1.40
2019-05-14T04:17:15.438Z,1.20
2019-05-14T04:19:09.781Z,2.30
2019-05-14T04:20:09.383Z,1.30
2019-05-14T04:21:59.820Z,1.60
2019-05-14T04:22:59.983Z,1.30
2019-05-14T04:24:50.484Z,1.20
2019-05-14T04:25:50.426Z,1.40
2019-05-14T04:27:42.605Z,1.90
2019-05-14T04:28:42.789Z,1.80
2019-05-14T04:30:34.653Z,1.40
2019-05-14T04:31:34.830Z,1.20
2019-05-14T04:33:29.940Z,1.30
2019-05-14T04:34:29.650Z,1.70
2019-05-14T04:36:19.617Z,1.20
2019-05-14T04:37:20.155Z,1.20
2019-05-14T04:39:10.526Z,1.30
2019-05-14T04:40:10.626Z,1.20
2019-05-14T04:42:02.892Z,1.20
2019-05-14T04:43:02.832Z,1.10
2019-05-14T04:44:54.928Z,1.50
2019-05-14T04:45:54.865Z,1.20
2019-05-14T04:47:49.943Z,1.40
2019-05-14T04:48:50.120Z,1.30
2019-05-14T04:50:40.534Z,1.40
2019-05-14T04:51:39.626Z,1.50
2019-05-14T04:53:31.258Z,1.50
2019-05-14T04:54:30.991Z,1.10
2019-05-14T04:56:22.862Z,1.40
2019-05-14T04:57:25.594Z,1.40
2019-05-14T04:59:14.871Z,1.20
2019-05-14T05:00:14.833Z,1.20
2019-05-14T05:02:09.569Z,1.20
2019-05-14T05:03:11.785Z,1.10
2019-05-14T05:04:59.541Z,1.30
2019-05-14T05:05:59.399Z,1.20
2019-05-14T05:07:51.190Z,1.20
2019-05-14T05:08:51.140Z,1.40
2019-05-14T05:10:43.220Z,1.10
2019-05-14T05:11:43.176Z,1.30
2019-05-14T05:13:35.269Z,1.30
2019-05-14T05:14:35.209Z,1.40
2019-05-14T05:16:29.542Z,1.70
2019-05-14T05:17:42.830Z,2.20
2019-05-14T05:19:19.790Z,1.80
2019-05-14T05:20:19.524Z,1.90
2019-05-14T05:22:12.812Z,1.90
2019-05-14T05:23:12.284Z,1.70
2019-05-14T05:25:03.319Z,1.90
2019-05-14T05:26:03.244Z,1.70
2019-05-14T05:27:56.551Z,2.30
2019-05-14T05:29:03.609Z,1.70
2019-05-14T05:30:49.050Z,2.80
2019-05-14T05:31:48.783Z,1.50
2019-05-14T05:33:39.494Z,2.30
2019-05-14T05:34:39.450Z,2.30
2019-05-14T05:36:31.646Z,2.10
2019-05-14T05:37:31.585Z,2.80
2019-05-14T05:39:23.687Z,2.10
2019-05-14T05:40:23.624Z,2.30
2019-05-14T05:42:15.695Z,3.20
2019-05-14T05:43:15.659Z,3.30
2019-05-14T05:45:08.173Z,3.40
2019-05-14T05:46:08.678Z,4.50
2019-05-14T05:48:01.850Z,2.90
2019-05-14T05:48:59.721Z,3.50
2019-05-14T05:50:51.816Z,3.80
2019-05-14T05:51:51.755Z,2.70
2019-05-14T05:53:43.827Z,3.50
2019-05-14T05:54:43.790Z,2.50
2019-05-14T05:56:35.986Z,3.20
2019-05-14T05:57:35.940Z,3.80
2019-05-14T05:59:29.372Z,3.00
2019-05-14T06:00:29.819Z,2.60
2019-05-14T06:02:20.053Z,2.00
2019-05-14T06:03:20.936Z,2.70
2019-05-14T06:05:12.078Z,2.60
2019-05-14T06:06:13.478Z,3.90
2019-05-14T06:08:04.119Z,3.30
2019-05-14T06:09:04.065Z,3.60
2019-05-14T06:10:58.871Z,2.90
2019-05-14T06:11:56.203Z,3.40
2019-05-14T06:13:48.602Z,2.20
2019-05-14T06:14:48.814Z,4.00
2019-05-14T06:16:40.329Z,4.20
2019-05-14T06:17:40.269Z,4.10
2019-05-14T06:19:32.445Z,4.50
2019-05-14T06:20:32.407Z,4.60
2019-05-14T06:22:24.590Z,4.40
2019-05-14T06:23:24.777Z,5.30
2019-05-14T06:25:20.540Z,5.00
2019-05-14T06:26:19.133Z,5.10
2019-05-14T06:28:08.822Z,5.10
2019-05-14T06:29:08.747Z,6.00
2019-05-14T06:31:00.911Z,7.20
2019-05-14T06:32:01.086Z,5.00
2019-05-14T06:33:52.717Z,4.80
2019-05-14T06:34:52.710Z,5.90
2019-05-14T06:36:44.877Z,5.90
2019-05-14T06:37:45.055Z,4.80
2019-05-14T06:39:39.087Z,6.80
2019-05-14T06:40:39.291Z,6.70
2019-05-14T06:42:29.025Z,5.40
2019-05-14T06:43:29.076Z,6.60
2019-05-14T06:45:21.190Z,6.20
2019-05-14T06:46:21.125Z,5.20
2019-05-14T06:48:26.857Z,5.20
2019-05-14T06:49:13.159Z,4.60
2019-05-14T06:51:05.254Z,4.90
2019-05-14T06:52:05.194Z,4.70
2019-05-14T06:53:58.749Z,5.70
2019-05-14T06:54:58.281Z,4.40
2019-05-14T06:56:49.453Z,5.80
2019-05-14T06:57:49.366Z,4.30
2019-05-14T06:59:41.438Z,6.40
2019-05-14T07:00:41.413Z,4.70
2019-05-14T07:02:33.489Z,5.50
2019-05-14T07:03:33.432Z,6.30
2019-05-14T07:05:28.007Z,5.10
2019-05-14T07:06:25.569Z,5.30
2019-05-14T07:08:18.782Z,5.40
2019-05-14T07:09:18.364Z,5.40
2019-05-14T07:11:09.703Z,6.40
2019-05-14T07:12:09.867Z,6.10
2019-05-14T07:14:01.731Z,9.50
2019-05-14T07:15:01.704Z,6.40
2019-05-14T07:16:53.581Z,5.20
2019-05-14T07:17:53.526Z,7.10
2019-05-14T07:19:45.607Z,6.60
2019-05-14T07:20:45.537Z,6.00
2019-05-14T07:22:39.043Z,7.00
2019-05-14T07:23:38.482Z,6.10
2019-05-14T07:25:29.596Z,6.80
2019-05-14T07:26:29.784Z,4.80
2019-05-14T07:28:21.596Z,5.10
2019-05-14T07:29:21.770Z,6.30
2019-05-14T07:31:13.733Z,6.80
2019-05-14T07:32:13.914Z,5.70
2019-05-14T07:34:05.767Z,4.10
2019-05-14T07:35:05.717Z,4.50
2019-05-14T07:36:58.655Z,4.20
2019-05-14T07:37:59.152Z,3.80
2019-05-14T07:39:49.833Z,5.30
2019-05-14T07:40:50.032Z,5.10
2019-05-14T07:42:41.850Z,4.60
2019-05-14T07:43:41.811Z,4.70
2019-05-14T07:45:34.010Z,5.00
2019-05-14T07:46:33.946Z,4.80
2019-05-14T07:48:28.531Z,6.00
2019-05-14T07:49:26.206Z,5.80
2019-05-14T07:51:19.050Z,5.90
2019-05-14T07:52:19.702Z,7.30
2019-05-14T07:54:10.106Z,5.40
2019-05-14T07:55:10.050Z,6.20
2019-05-14T07:57:02.151Z,5.70
2019-05-14T07:58:02.085Z,4.60
2019-05-14T07:59:54.159Z,7.40
2019-05-14T08:00:54.121Z,5.40
2019-05-14T08:02:46.142Z,6.20
2019-05-14T08:03:48.502Z,4.30
2019-05-14T08:05:38.937Z,5.30
2019-05-14T08:06:39.370Z,5.10
2019-05-14T08:08:30.168Z,5.60
2019-05-14T08:09:30.157Z,5.90
2019-05-14T08:11:22.213Z,6.50
2019-05-14T08:12:22.157Z,4.20
2019-05-14T08:14:14.350Z,5.00
2019-05-14T08:15:18.918Z,5.00
2019-05-14T08:17:08.472Z,5.40
2019-05-14T08:18:08.138Z,4.40
2019-05-14T08:19:58.519Z,4.50
2019-05-14T08:20:59.210Z,6.70
2019-05-14T08:22:50.533Z,6.50
2019-05-14T08:23:50.500Z,6.70
2019-05-14T08:25:42.590Z,3.90
2019-05-14T08:26:44.099Z,3.90
2019-05-14T08:28:34.617Z,5.00
2019-05-14T08:29:36.936Z,3.90
2019-05-14T08:31:29.091Z,6.90
2019-05-14T08:32:28.421Z,7.50
2019-05-14T08:34:19.232Z,6.90
2019-05-14T08:35:18.738Z,5.10
2019-05-14T08:37:10.806Z,5.40
2019-05-14T08:38:12.211Z,6.30
2019-05-14T08:40:02.864Z,5.00
2019-05-14T08:41:02.817Z,5.40
2019-05-14T08:42:54.894Z,5.60
2019-05-14T08:43:54.839Z,4.60
2019-05-14T08:45:48.813Z,5.10
2019-05-14T08:46:48.668Z,6.10
2019-05-14T08:48:39.168Z,6.90
2019-05-14T08:49:45.918Z,4.60
2019-05-14T08:51:30.996Z,6.40
2019-05-14T08:52:30.954Z,4.90
2019-05-14T08:54:23.022Z,3.90
2019-05-14T08:55:23.223Z,6.20
2019-05-14T08:57:15.263Z,5.00
2019-05-14T08:58:15.426Z,4.20
2019-05-14T09:00:13.660Z,5.90
2019-05-14T09:01:08.222Z,5.40
2019-05-14T09:03:02.918Z,6.10
2019-05-14T09:03:59.889Z,4.90
2019-05-14T09:05:52.396Z,4.70
2019-05-14T09:06:51.525Z,6.90
2019-05-14T09:08:43.640Z,6.10
2019-05-14T09:09:43.564Z,5.90
2019-05-14T09:11:38.771Z,5.20
2019-05-14T09:12:35.594Z,5.50
2019-05-14T09:14:28.143Z,4.50
2019-05-14T09:15:28.821Z,5.30
2019-05-14T09:17:19.803Z,4.70
2019-05-14T09:18:19.763Z,3.90
2019-05-14T09:20:12.073Z,3.50
2019-05-14T09:21:11.798Z,5.80
2019-05-14T09:23:03.893Z,3.80
2019-05-14T09:24:03.833Z,5.70
2019-05-14T09:25:58.572Z,3.30
2019-05-14T09:26:55.971Z,5.00
2019-05-14T09:28:48.441Z,3.30
2019-05-14T09:29:48.542Z,5.10
2019-05-14T09:31:40.087Z,4.50
2019-05-14T09:32:40.041Z,4.50
2019-05-14T09:34:32.162Z,4.30
2019-05-14T09:35:32.105Z,4.70
2019-05-14T09:37:24.239Z,5.10
2019-05-14T09:38:24.459Z,4.00
2019-05-14T09:40:16.311Z,6.00
2019-05-14T09:41:18.390Z,5.20
2019-05-14T09:43:09.149Z,5.70
2019-05-14T09:44:09.303Z,5.30
2019-05-14T09:46:00.681Z,5.50
2019-05-14T09:47:00.618Z,3.50
2019-05-14T09:48:54.024Z,4.90
2019-05-14T09:49:52.653Z,5.50
2019-05-14T09:51:44.843Z,5.70
2019-05-14T09:52:45.032Z,4.90
2019-05-14T09:54:41.503Z,4.00
2019-05-14T09:55:38.855Z,4.10
2019-05-14T09:57:28.943Z,4.40
2019-05-14T09:58:28.868Z,4.70
2019-05-14T10:00:20.944Z,4.00
2019-05-14T10:01:20.889Z,3.80
2019-05-14T10:03:12.776Z,3.50
2019-05-14T10:04:12.728Z,4.40
2019-05-14T10:06:04.819Z,4.90
2019-05-14T10:07:04.770Z,3.30
2019-05-14T10:08:58.855Z,4.50
2019-05-14T10:09:56.790Z,4.60
2019-05-14T10:11:48.881Z,7.40
2019-05-14T10:12:56.019Z,4.60
2019-05-14T10:14:40.935Z,5.90
2019-05-14T10:15:40.860Z,7.20
2019-05-14T10:17:32.934Z,4.90
2019-05-14T10:18:32.894Z,7.00
2019-05-14T10:20:40.549Z,7.70
2019-05-14T10:21:25.031Z,5.00
2019-05-14T10:23:18.916Z,4.10
2019-05-14T10:24:18.605Z,3.90
2019-05-14T10:26:09.316Z,5.70
2019-05-14T10:27:09.252Z,4.90
2019-05-14T10:29:01.169Z,4.90
2019-05-14T10:30:01.365Z,4.80
2019-05-14T10:31:53.224Z,4.80
2019-05-14T10:32:53.196Z,3.20
2019-05-14T10:34:45.142Z,6.90
2019-05-14T10:35:45.101Z,3.60
2019-05-14T10:37:39.806Z,5.70
2019-05-14T10:38:38.774Z,4.10
2019-05-14T10:40:29.366Z,3.50
2019-05-14T10:41:29.384Z,6.80
2019-05-14T10:43:21.373Z,4.60
2019-05-14T10:44:21.537Z,5.00
2019-05-14T10:46:13.388Z,5.00
2019-05-14T10:47:13.572Z,5.40
2019-05-14T10:49:16.581Z,4.30
2019-05-14T10:50:05.376Z,5.20
2019-05-14T10:51:58.601Z,5.00
2019-05-14T10:52:59.552Z,5.50
2019-05-14T10:54:56.042Z,4.30
2019-05-14T10:55:49.544Z,3.10
2019-05-14T10:57:41.641Z,5.30
2019-05-14T10:58:41.579Z,3.70
2019-05-14T11:00:33.665Z,6.00
2019-05-14T11:01:33.613Z,7.20
2019-05-14T11:03:25.705Z,4.40
2019-05-14T11:04:28.434Z,3.80
2019-05-14T11:06:18.830Z,4.40
2019-05-14T11:07:18.616Z,4.30
2019-05-14T11:09:09.775Z,4.30
2019-05-14T11:10:09.717Z,5.60
2019-05-14T11:12:01.799Z,4.00
2019-05-14T11:13:01.776Z,3.60
2019-05-14T11:14:53.849Z,3.20
2019-05-14T11:15:53.789Z,3.80
2019-05-14T11:17:48.499Z,3.90
2019-05-14T11:18:49.239Z,4.30
2019-05-14T11:20:41.940Z,4.70
2019-05-14T11:21:39.177Z,4.90
2019-05-14T11:23:30.163Z,4.50
2019-05-14T11:24:29.993Z,3.10
2019-05-14T11:26:24.774Z,4.10
2019-05-14T11:27:22.029Z,4.00
2019-05-14T11:29:14.417Z,2.30
2019-05-14T11:30:14.362Z,2.40
2019-05-14T11:32:09.375Z,5.20
2019-05-14T11:33:09.016Z,4.80
2019-05-14T11:34:59.187Z,4.50
2019-05-14T11:35:58.680Z,5.90
2019-05-14T11:37:50.505Z,5.10
2019-05-14T11:38:51.063Z,4.50
2019-05-14T11:40:42.567Z,4.00
2019-05-14T11:41:42.508Z,3.40
2019-05-14T11:43:34.599Z,3.50
2019-05-14T11:44:34.768Z,3.10
2019-05-14T11:46:40.811Z,4.70
2019-05-14T11:47:26.573Z,4.90
2019-05-14T11:49:19.408Z,3.10
2019-05-14T11:50:19.423Z,3.50
2019-05-14T11:52:11.911Z,3.20
2019-05-14T11:53:10.875Z,4.00
2019-05-14T11:55:02.737Z,4.50
2019-05-14T11:56:02.902Z,6.90
2019-05-14T11:57:54.774Z,4.60
2019-05-14T11:58:54.712Z,3.30
2019-05-14T12:00:46.785Z,3.30
2019-05-14T12:01:49.215Z,4.50
2019-05-14T12:03:39.571Z,4.20
2019-05-14T12:04:39.249Z,4.40
2019-05-14T12:06:30.870Z,3.50
2019-05-14T12:07:30.816Z,3.70
2019-05-14T12:09:23.004Z,4.70
2019-05-14T12:10:22.958Z,6.10
2019-05-14T12:12:15.021Z,4.90
2019-05-14T12:13:15.003Z,6.40
2019-05-14T12:15:08.863Z,4.50
2019-05-14T12:16:08.557Z,2.60
2019-05-14T12:17:59.687Z,4.20
2019-05-14T12:18:59.223Z,3.50
2019-05-14T12:20:51.125Z,4.00
2019-05-14T12:22:03.674Z,3.40
2019-05-14T12:23:43.178Z,4.00
2019-05-14T12:24:43.124Z,4.30
2019-05-14T12:26:35.211Z,5.50
2019-05-14T12:27:35.159Z,3.80
2019-05-14T12:29:29.191Z,3.40
2019-05-14T12:30:28.639Z,3.90
2019-05-14T12:32:19.413Z,3.10
2019-05-14T12:33:19.908Z,2.80
2019-05-14T12:35:11.397Z,3.20
2019-05-14T12:36:11.366Z,3.10
2019-05-14T12:38:03.452Z,3.90
2019-05-14T12:39:03.407Z,3.10
2019-05-14T12:40:58.368Z,3.20
2019-05-14T12:41:55.531Z,2.80
2019-05-14T12:43:47.621Z,3.20
2019-05-14T12:44:47.797Z,2.60
2019-05-14T12:46:39.638Z,3.20
2019-05-14T12:47:39.660Z,4.00
2019-05-14T12:49:31.783Z,1.70
2019-05-14T12:50:31.738Z,1.80
2019-05-14T12:52:25.929Z,2.20
2019-05-14T12:53:23.875Z,3.00
2019-05-14T12:55:16.071Z,2.70
2019-05-14T12:56:18.589Z,3.40
2019-05-14T12:58:08.281Z,2.10
2019-05-14T12:59:08.074Z,2.80
2019-05-14T13:01:00.235Z,2.70
2019-05-14T13:02:00.415Z,2.70
2019-05-14T13:03:52.277Z,3.10
2019-05-14T13:04:52.223Z,2.00
2019-05-14T13:06:44.285Z,3.10
2019-05-14T13:07:44.270Z,2.40
2019-05-14T13:09:38.419Z,2.10
2019-05-14T13:10:38.435Z,3.50
2019-05-14T13:12:29.708Z,1.70
2019-05-14T13:13:29.190Z,3.10
2019-05-14T13:15:20.523Z,3.10
2019-05-14T13:16:20.686Z,2.50
2019-05-14T13:18:12.573Z,2.00
2019-05-14T13:19:12.497Z,2.90
2019-05-14T13:21:04.587Z,2.00
2019-05-14T13:22:13.100Z,2.90
2019-05-14T13:23:56.611Z,2.10
2019-05-14T13:24:58.166Z,2.50
2019-05-14T13:26:49.677Z,2.40
2019-05-14T13:27:48.596Z,3.50
2019-05-14T13:29:40.685Z,2.30
2019-05-14T13:30:40.630Z,2.70
2019-05-14T13:32:32.699Z,3.00
2019-05-14T13:33:32.899Z,3.30
2019-05-14T13:35:24.750Z,2.40
2019-05-14T13:36:24.706Z,2.80
2019-05-14T13:38:16.787Z,2.00
2019-05-14T13:39:19.227Z,3.40
2019-05-14T13:41:08.883Z,3.00
2019-05-14T13:42:11.924Z,2.20
2019-05-14T13:44:15.918Z,3.40
2019-05-14T13:45:00.802Z,3.00
2019-05-14T13:46:52.889Z,4.10
2019-05-14T13:47:52.836Z,2.30
2019-05-14T13:49:44.922Z,2.90
2019-05-14T13:50:45.100Z,3.30
2019-05-14T13:52:40.538Z,3.30
2019-05-14T13:53:39.074Z,3.10
2019-05-14T13:55:30.719Z,4.40
2019-05-14T13:56:28.938Z,6.00
2019-05-14T13:58:21.168Z,5.10
2019-05-14T13:59:20.980Z,3.90
2019-05-14T14:01:13.068Z,5.20
2019-05-14T14:02:13.008Z,4.20
2019-05-14T14:04:11.264Z,3.80
2019-05-14T14:05:05.144Z,6.30
2019-05-14T14:06:59.090Z,3.80
2019-05-14T14:07:59.051Z,3.80
2019-05-14T14:09:49.949Z,4.40
2019-05-14T14:10:53.414Z,3.30
2019-05-14T14:12:41.395Z,6.30
2019-05-14T14:13:41.379Z,3.80
2019-05-14T14:15:33.518Z,2.70
2019-05-14T14:16:33.486Z,2.50
2019-05-14T14:18:26.445Z,2.80
2019-05-14T14:19:28.050Z,3.10
2019-05-14T14:21:19.662Z,5.80
2019-05-14T14:22:19.384Z,3.50
2019-05-14T14:24:09.845Z,3.50
2019-05-14T14:25:09.932Z,3.50
2019-05-14T14:27:01.796Z,3.30
2019-05-14T14:28:01.727Z,4.20
2019-05-14T14:29:53.693Z,4.00
2019-05-14T14:30:53.656Z,3.40
2019-05-14T14:32:45.748Z,3.00
2019-05-14T14:33:48.486Z,3.10
2019-05-14T14:35:38.770Z,2.60
2019-05-14T14:36:38.638Z,2.80
2019-05-14T14:38:29.818Z,2.70
2019-05-14T14:39:29.759Z,3.30
2019-05-14T14:41:21.829Z,1.80
2019-05-14T14:42:21.801Z,3.40
2019-05-14T14:44:13.881Z,3.10
2019-05-14T14:45:13.828Z,2.50
2019-05-14T14:47:07.914Z,4.30
2019-05-14T14:48:05.871Z,2.70
2019-05-14T14:50:00.326Z,2.80
2019-05-14T14:50:58.625Z,4.00
2019-05-14T14:52:49.966Z,3.80
2019-05-14T14:53:59.342Z,2.80
2019-05-14T14:55:42.028Z,3.10
2019-05-14T14:56:41.965Z,3.30
2019-05-14T14:58:34.137Z,3.90
2019-05-14T14:59:34.333Z,2.80
2019-05-14T15:01:29.774Z,4.40
2019-05-14T15:02:28.727Z,3.00
2019-05-14T15:04:19.416Z,3.90
2019-05-14T15:05:19.912Z,2.30
2019-05-14T15:07:10.341Z,2.90
2019-05-14T15:08:10.595Z,4.00
2019-05-14T15:10:02.501Z,2.80
2019-05-14T15:11:02.444Z,4.20
2019-05-14T15:12:54.539Z,4.70
2019-05-14T15:13:54.479Z,2.40
2019-05-14T15:15:49.435Z,2.50
2019-05-14T15:16:49.494Z,2.30
2019-05-14T15:18:38.848Z,2.60
2019-05-14T15:19:39.538Z,3.60
2019-05-14T15:21:30.635Z,2.80
2019-05-14T15:22:31.205Z,2.00
2019-05-14T15:24:22.679Z,3.00
2019-05-14T15:25:22.857Z,2.80
2019-05-14T15:27:15.374Z,2.50
2019-05-14T15:28:14.880Z,2.50
2019-05-14T15:30:06.750Z,3.30
2019-05-14T15:31:08.847Z,2.00
2019-05-14T15:32:59.738Z,2.30
2019-05-14T15:33:59.455Z,2.70
2019-05-14T15:35:50.809Z,2.50
2019-05-14T15:36:50.753Z,2.40
2019-05-14T15:38:42.851Z,2.40
2019-05-14T15:39:42.789Z,3.20
2019-05-14T15:41:34.866Z,2.70
2019-05-14T15:42:34.829Z,2.50
2019-05-14T15:44:44.171Z,2.50
2019-05-14T15:45:28.765Z,2.10
2019-05-14T15:47:19.070Z,2.90
2019-05-14T15:48:19.898Z,2.30
2019-05-14T15:50:11.071Z,2.80
2019-05-14T15:51:14.983Z,4.90
2019-05-14T15:53:03.121Z,2.90
2019-05-14T15:54:21.096Z,1.80
2019-05-14T15:55:55.236Z,2.40
2019-05-14T15:56:55.200Z,2.90
2019-05-14T15:58:47.287Z,2.40
2019-05-14T15:59:47.231Z,2.20
2019-05-14T16:01:39.934Z,2.10
2019-05-14T16:02:39.995Z,2.70
2019-05-14T16:04:31.555Z,2.00
2019-05-14T16:05:31.736Z,2.50
2019-05-14T16:07:23.586Z,2.80
2019-05-14T16:08:23.773Z,2.00
2019-05-14T16:10:15.636Z,2.40
2019-05-14T16:11:15.574Z,2.50
2019-05-14T16:13:08.765Z,2.30
2019-05-14T16:14:10.116Z,2.70
2019-05-14T16:15:59.682Z,2.50
2019-05-14T16:16:59.874Z,3.40
2019-05-14T16:18:51.734Z,2.50
2019-05-14T16:19:51.907Z,2.10
2019-05-14T16:21:43.758Z,3.80
2019-05-14T16:22:43.738Z,2.80
2019-05-14T16:24:51.246Z,2.20
2019-05-14T16:25:37.887Z,2.00
2019-05-14T16:27:29.818Z,2.50
2019-05-14T16:28:28.750Z,2.60
2019-05-14T16:30:19.954Z,2.40
2019-05-14T16:31:19.946Z,1.80
2019-05-14T16:33:12.103Z,3.60
2019-05-14T16:34:12.054Z,2.40
2019-05-14T16:36:04.135Z,3.70
2019-05-14T16:37:04.089Z,2.20
2019-05-14T16:38:58.475Z,2.10
2019-05-14T16:39:56.123Z,2.90
2019-05-14T16:41:49.029Z,1.90
2019-05-14T16:42:48.594Z,2.60
2019-05-14T16:44:40.227Z,2.50
2019-05-14T16:45:40.192Z,2.70
2019-05-14T16:47:32.287Z,2.10
2019-05-14T16:48:32.226Z,1.80
2019-05-14T16:50:24.410Z,1.80
2019-05-14T16:51:24.373Z,1.70
2019-05-14T16:53:16.460Z,2.50
2019-05-14T16:54:18.204Z,1.80
2019-05-14T16:56:08.466Z,1.50
2019-05-14T16:57:10.973Z,2.80
2019-05-14T16:59:00.522Z,2.70
2019-05-14T17:00:00.502Z,2.40
2019-05-14T17:01:52.553Z,1.70
2019-05-14T17:02:52.499Z,2.20
2019-05-14T17:04:44.599Z,1.50
2019-05-14T17:05:44.535Z,2.40
2019-05-14T17:07:38.600Z,1.80
2019-05-14T17:08:39.112Z,1.80
2019-05-14T17:10:28.804Z,2.80
2019-05-14T17:11:28.604Z,2.30
2019-05-14T17:13:20.676Z,2.20
2019-05-14T17:14:20.637Z,3.20
2019-05-14T17:16:12.727Z,1.90
2019-05-14T17:17:12.672Z,2.50
2019-05-14T17:19:04.753Z,2.60
2019-05-14T17:20:04.939Z,1.90
2019-05-14T17:21:59.247Z,3.00
2019-05-14T17:22:59.285Z,2.30
2019-05-14T17:24:49.175Z,2.30
2019-05-14T17:25:49.006Z,2.20
2019-05-14T17:27:40.855Z,2.90
2019-05-14T17:28:41.041Z,1.50
2019-05-14T17:30:32.885Z,3.10
2019-05-14T17:31:33.075Z,1.50
2019-05-14T17:33:24.932Z,2.20
2019-05-14T17:34:25.111Z,2.20
2019-05-14T17:36:18.729Z,2.30
2019-05-14T17:37:19.065Z,1.60
2019-05-14T17:39:09.006Z,1.80
2019-05-14T17:40:09.544Z,2.20
2019-05-14T17:42:01.015Z,1.70
2019-05-14T17:43:00.979Z,2.40
2019-05-14T17:44:53.070Z,2.10
2019-05-14T17:45:53.269Z,2.00
2019-05-14T17:47:45.087Z,2.60
2019-05-14T17:48:45.284Z,1.70
2019-05-14T17:50:38.443Z,1.90
2019-05-14T17:51:39.107Z,1.70
2019-05-14T17:53:29.255Z,1.90
2019-05-14T17:54:29.119Z,2.20
2019-05-14T17:56:22.855Z,1.70
2019-05-14T17:57:24.501Z,1.90
2019-05-14T17:59:13.227Z,1.80
2019-05-14T18:00:13.425Z,1.60
2019-05-14T18:02:05.268Z,1.60
2019-05-14T18:03:05.253Z,1.60
2019-05-14T18:04:59.388Z,1.90
2019-05-14T18:05:58.204Z,1.50
2019-05-14T18:07:49.427Z,2.10
2019-05-14T18:08:49.631Z,2.60
2019-05-14T18:10:41.495Z,2.20
2019-05-14T18:11:41.432Z,1.40
2019-05-14T18:13:33.605Z,1.70
2019-05-14T18:14:33.561Z,2.20
2019-05-14T18:16:25.654Z,2.20
2019-05-14T18:17:25.613Z,1.70
2019-05-14T18:19:18.283Z,1.80
2019-05-14T18:20:17.631Z,2.00
2019-05-14T18:22:09.726Z,1.40
2019-05-14T18:23:11.694Z,1.40
2019-05-14T18:25:01.769Z,1.50
2019-05-14T18:26:08.369Z,1.70
2019-05-14T18:27:53.793Z,2.10
2019-05-14T18:28:53.971Z,1.70
2019-05-14T18:30:45.925Z,1.60
2019-05-14T18:31:52.447Z,1.60
2019-05-14T18:33:39.860Z,1.90
2019-05-14T18:34:39.148Z,1.70
2019-05-14T18:36:30.040Z,2.00
2019-05-14T18:37:29.940Z,1.70
2019-05-14T18:39:22.043Z,2.00
2019-05-14T18:40:21.985Z,2.00
2019-05-14T18:42:14.073Z,2.00
2019-05-14T18:43:14.030Z,1.80
2019-05-14T18:45:08.401Z,1.80
2019-05-14T18:46:08.527Z,1.80
2019-05-14T18:47:59.125Z,1.40
2019-05-14T18:48:59.198Z,1.40
2019-05-14T18:50:50.156Z,1.70
2019-05-14T18:51:50.373Z,1.60
2019-05-14T18:53:42.210Z,1.70
2019-05-14T18:54:42.146Z,1.60
2019-05-14T18:56:34.325Z,1.70
2019-05-14T18:57:34.283Z,1.90
2019-05-14T18:59:30.543Z,1.70
2019-05-14T19:00:26.318Z,1.90
2019-05-14T19:02:18.555Z,1.50
2019-05-14T19:03:19.819Z,1.50
2019-05-14T19:05:10.441Z,1.50
2019-05-14T19:06:10.386Z,1.40
2019-05-14T19:08:02.453Z,1.80
2019-05-14T19:09:02.651Z,1.80
2019-05-14T19:10:54.501Z,2.00
2019-05-14T19:11:54.685Z,1.60
2019-05-14T19:13:48.386Z,1.90
2019-05-14T19:14:49.019Z,1.60
2019-05-14T19:16:38.683Z,1.40
2019-05-14T19:17:38.952Z,1.70
2019-05-14T19:19:30.694Z,1.40
2019-05-14T19:20:30.658Z,1.60
2019-05-14T19:22:22.748Z,1.50
2019-05-14T19:23:22.695Z,1.80
2019-05-14T19:25:14.762Z,1.80
2019-05-14T19:26:14.959Z,1.80
2019-05-14T19:28:08.781Z,1.70
2019-05-14T19:29:08.724Z,1.80